createdAt,value
2022-09-02T00:01:37.967Z,18.70
2022-09-02T00:04:08.523Z,18.70
2022-09-02T00:06:38.108Z,18.60
2022-09-02T00:09:06.540Z,18.70
2022-09-02T00:11:34.247Z,18.70
2022-09-02T00:14:04.174Z,18.70
2022-09-02T00:16:33.233Z,18.80
2022-09-02T00:19:03.738Z,18.70
2022-09-02T00:21:34.234Z,18.80
2022-09-02T00:24:02.647Z,18.90
2022-09-02T00:26:31.761Z,18.70
2022-09-02T00:28:58.514Z,18.80
2022-09-02T00:31:29.130Z,18.80
2022-09-02T00:33:56.808Z,18.80
2022-09-02T00:36:23.636Z,18.90
2022-09-02T00:38:50.475Z,18.90
2022-09-02T00:41:20.587Z,18.80
2022-09-02T00:44:09.717Z,18.80
2022-09-02T00:46:36.732Z,18.90
2022-09-02T00:49:25.122Z,18.90
2022-09-02T00:52:00.478Z,19.00
2022-09-02T00:54:29.755Z,19.00
2022-09-02T00:56:57.380Z,19.00
2022-09-02T00:59:38.524Z,19.00
2022-09-02T01:02:08.008Z,18.90
2022-09-02T01:04:35.325Z,19.00
2022-09-02T01:07:06.100Z,19.10
2022-09-02T01:09:33.540Z,19.10
2022-09-02T01:12:02.974Z,19.00
2022-09-02T01:14:30.794Z,18.90
2022-09-02T01:17:00.432Z,18.90
2022-09-02T01:19:34.642Z,18.90
2022-09-02T01:22:02.100Z,19.00
2022-09-02T01:24:32.659Z,19.00
2022-09-02T01:27:00.394Z,19.00
2022-09-02T01:29:28.642Z,18.90
2022-09-02T01:31:55.702Z,18.90
2022-09-02T01:34:23.269Z,18.90
2022-09-02T01:36:52.376Z,18.70
2022-09-02T01:39:19.079Z,18.70
2022-09-02T01:41:45.980Z,18.70
2022-09-02T01:44:13.196Z,18.70
2022-09-02T01:46:39.950Z,18.70
2022-09-02T01:49:06.893Z,18.60
2022-09-02T01:51:33.714Z,18.60
2022-09-02T01:54:00.464Z,18.70
2022-09-02T01:56:27.204Z,18.60
2022-09-02T01:58:54.273Z,18.50
2022-09-02T02:01:21.636Z,18.50
2022-09-02T02:03:51.692Z,18.50
2022-09-02T02:06:18.544Z,18.40
2022-09-02T02:08:46.282Z,18.30
2022-09-02T02:11:22.986Z,18.30
2022-09-02T02:13:50.130Z,18.30
2022-09-02T02:16:17.091Z,18.20
2022-09-02T02:18:43.891Z,18.20
2022-09-02T02:21:13.667Z,18.30
2022-09-02T02:23:40.559Z,18.30
2022-09-02T02:26:08.519Z,18.30
2022-09-02T02:28:36.114Z,18.30
2022-09-02T02:31:05.022Z,18.30
2022-09-02T02:33:35.987Z,18.20
2022-09-02T02:36:05.575Z,18.20
2022-09-02T02:38:35.115Z,18.20
2022-09-02T02:41:06.431Z,18.10
2022-09-02T02:43:34.623Z,18.10
2022-09-02T02:46:01.494Z,18.10
2022-09-02T02:48:28.262Z,18.00
2022-09-02T02:50:55.403Z,17.90
2022-09-02T02:53:22.302Z,17.80
2022-09-02T02:55:51.453Z,17.80
2022-09-02T02:58:18.479Z,17.70
2022-09-02T03:00:46.212Z,17.70
2022-09-02T03:03:19.371Z,17.60
2022-09-02T03:05:50.029Z,17.60
2022-09-02T03:08:21.143Z,17.60
2022-09-02T03:10:53.895Z,17.60
2022-09-02T03:13:22.249Z,17.50
2022-09-02T03:15:52.216Z,17.50
2022-09-02T03:18:21.129Z,17.50
2022-09-02T03:33:09.776Z,17.50
2022-09-02T03:35:41.196Z,17.40
2022-09-02T03:43:05.506Z,17.30
2022-09-02T03:48:00.188Z,17.10
2022-09-02T03:50:36.061Z,17.10
2022-09-02T03:53:03.558Z,17.10
2022-09-02T03:55:33.419Z,17.10
2022-09-02T03:58:00.150Z,17.10
2022-09-02T04:00:32.022Z,17.10
2022-09-02T04:03:01.422Z,17.20
2022-09-02T04:05:28.569Z,17.20
2022-09-02T04:07:57.615Z,17.10
2022-09-02T04:10:24.632Z,17.10
2022-09-02T04:12:52.288Z,17.10
2022-09-02T04:15:20.055Z,17.10
2022-09-02T04:18:42.852Z,17.00
2022-09-02T04:21:09.745Z,17.00
2022-09-02T04:23:37.384Z,17.00
2022-09-02T04:26:13.068Z,17.10
2022-09-02T04:28:40.411Z,17.10
2022-09-02T04:31:11.448Z,17.10
2022-09-02T04:33:39.159Z,17.00
2022-09-02T04:36:08.566Z,17.00
2022-09-02T04:38:36.158Z,17.00
2022-09-02T04:41:12.323Z,16.90
2022-09-02T04:43:39.251Z,16.90
2022-09-02T04:46:11.451Z,16.80
2022-09-02T04:48:40.698Z,16.80
2022-09-02T04:51:10.603Z,16.80
2022-09-02T04:53:40.291Z,16.80
2022-09-02T04:56:08.148Z,16.80
2022-09-02T04:58:36.357Z,16.80
2022-09-02T05:01:11.224Z,16.70
2022-09-02T05:03:41.066Z,16.70
2022-09-02T05:06:12.734Z,16.70
2022-09-02T05:08:42.200Z,16.70
2022-09-02T05:11:11.592Z,16.60
2022-09-02T05:13:40.513Z,16.60
2022-09-02T05:16:10.569Z,16.60
2022-09-02T05:18:37.562Z,16.60
2022-09-02T05:21:07.350Z,16.60
2022-09-02T05:23:34.740Z,16.60
2022-09-02T05:26:09.493Z,16.70
2022-09-02T05:28:36.958Z,16.70
2022-09-02T05:31:10.938Z,16.70
2022-09-02T05:33:40.723Z,16.70
2022-09-02T05:36:12.436Z,16.80
2022-09-02T05:38:41.374Z,16.80
2022-09-02T05:41:17.620Z,16.80
2022-09-02T05:43:44.742Z,16.80
2022-09-02T05:46:17.679Z,16.90
2022-09-02T05:49:04.311Z,16.90
2022-09-02T05:51:34.962Z,17.00
2022-09-02T05:54:01.849Z,17.00
2022-09-02T05:56:29.083Z,17.00
2022-09-02T05:58:57.262Z,17.10
2022-09-02T06:01:24.241Z,17.10
2022-09-02T06:03:52.893Z,17.20
2022-09-02T06:06:22.919Z,17.20
2022-09-02T06:08:50.518Z,17.30
2022-09-02T06:11:18.218Z,17.40
2022-09-02T06:13:48.702Z,17.50
2022-09-02T06:16:22.303Z,17.50
2022-09-02T06:18:49.859Z,17.60
2022-09-02T06:21:17.546Z,17.60
2022-09-02T06:23:44.976Z,17.70
2022-09-02T06:26:16.002Z,17.80
2022-09-02T06:28:45.513Z,17.90
2022-09-02T06:31:16.203Z,17.90
2022-09-02T06:33:44.533Z,18.00
2022-09-02T06:36:14.633Z,18.10
2022-09-02T06:38:45.992Z,18.20
2022-09-02T06:41:19.619Z,18.30
2022-09-02T06:43:46.396Z,18.40
2022-09-02T06:46:25.123Z,18.60
2022-09-02T06:48:52.143Z,18.70
2022-09-02T06:51:50.895Z,19.20
2022-09-02T06:54:19.805Z,19.20
2022-09-02T06:56:49.569Z,19.10
2022-09-02T06:59:17.938Z,19.20
2022-09-02T07:01:45.326Z,19.40
2022-09-02T07:04:30.747Z,19.40
2022-09-02T07:06:57.850Z,20.30
2022-09-02T07:09:31.371Z,19.60
2022-09-02T07:12:04.371Z,19.60
2022-09-02T07:14:36.179Z,19.40
2022-09-02T07:17:03.061Z,19.50
2022-09-02T07:19:29.936Z,19.60
2022-09-02T07:22:02.376Z,19.70
2022-09-02T07:24:29.126Z,19.70
2022-09-02T07:26:55.980Z,19.70
2022-09-02T07:29:25.630Z,19.70
2022-09-02T07:31:52.353Z,19.70
2022-09-02T07:34:20.066Z,19.80
2022-09-02T07:36:49.137Z,19.80
2022-09-02T07:39:17.772Z,19.90
2022-09-02T07:41:47.422Z,20.00
2022-09-02T07:44:14.102Z,20.10
2022-09-02T07:46:41.110Z,20.10
2022-09-02T07:49:10.462Z,20.10
2022-09-02T07:51:40.705Z,20.20
2022-09-02T07:54:11.682Z,20.30
2022-09-02T07:56:40.966Z,20.40
2022-09-02T07:59:07.957Z,20.40
2022-09-02T08:01:35.480Z,20.50
2022-09-02T08:04:05.745Z,20.50
2022-09-02T08:06:35.074Z,20.60
2022-09-02T08:09:12.381Z,20.60
2022-09-02T08:11:44.349Z,20.70
2022-09-02T08:14:14.171Z,20.80
2022-09-02T08:16:44.580Z,20.90
2022-09-02T08:19:14.498Z,20.90
2022-09-02T08:24:08.384Z,21.10
2022-09-02T08:26:37.221Z,21.20
2022-09-02T08:29:05.671Z,21.40
2022-09-02T08:31:35.244Z,21.30
2022-09-02T08:34:02.155Z,21.40
2022-09-02T08:36:29.213Z,21.40
2022-09-02T08:38:56.260Z,21.60
2022-09-02T08:41:46.409Z,21.70
2022-09-02T08:44:19.812Z,21.70
2022-09-02T08:46:48.833Z,21.90
2022-09-02T08:49:26.884Z,21.90
2022-09-02T08:52:01.728Z,22.00
2022-09-02T08:54:40.167Z,22.20
2022-09-02T08:57:09.278Z,22.30
2022-09-02T09:02:10.666Z,22.40
2022-09-02T09:05:08.908Z,22.40
2022-09-02T09:07:53.972Z,22.50
2022-09-02T09:10:49.487Z,22.40
2022-09-02T09:13:46.984Z,22.50
2022-09-02T09:16:26.440Z,22.50
2022-09-02T09:19:08.875Z,22.70
2022-09-02T09:21:38.975Z,22.90
2022-09-02T09:24:39.926Z,22.90
2022-09-02T09:27:16.344Z,23.10
2022-09-02T09:29:43.412Z,23.30
2022-09-02T09:32:19.799Z,23.40
2022-09-02T09:34:57.796Z,23.40
2022-09-02T09:37:40.840Z,23.50
2022-09-02T09:40:24.819Z,23.70
2022-09-02T09:43:05.503Z,24.00
2022-09-02T09:45:35.441Z,24.10
2022-09-02T09:48:17.122Z,24.00
2022-09-02T09:50:44.922Z,24.10
2022-09-02T09:53:19.993Z,24.10
2022-09-02T09:56:07.787Z,24.20
2022-09-02T09:58:38.960Z,24.40
2022-09-02T10:01:18.808Z,24.70
2022-09-02T10:04:20.718Z,24.80
2022-09-02T10:06:52.938Z,24.70
2022-09-02T10:09:22.557Z,24.80
2022-09-02T10:12:02.934Z,25.00
2022-09-02T10:14:50.097Z,25.00
2022-09-02T10:17:16.864Z,25.00
2022-09-02T10:20:10.622Z,25.10
2022-09-02T10:22:59.609Z,25.10
2022-09-02T10:25:53.978Z,25.10
2022-09-02T10:28:20.912Z,25.20
2022-09-02T10:30:58.342Z,25.40
2022-09-02T10:33:29.552Z,25.70
2022-09-02T10:36:20.852Z,25.80
2022-09-02T10:41:36.516Z,25.60
2022-09-02T10:44:27.684Z,25.50
2022-09-02T10:47:29.344Z,25.50
2022-09-02T10:50:14.487Z,25.70
2022-09-02T10:53:10.207Z,25.90
2022-09-02T10:56:00.320Z,26.00
2022-09-02T10:58:51.289Z,26.00
2022-09-02T11:01:28.205Z,26.20
2022-09-02T11:04:32.421Z,26.20
2022-09-02T11:07:04.113Z,26.20
2022-09-02T11:09:33.610Z,26.30
2022-09-02T11:12:08.596Z,26.40
2022-09-02T11:15:04.461Z,26.30
2022-09-02T11:17:37.137Z,26.30
2022-09-02T11:20:07.845Z,26.30
2022-09-02T11:23:16.429Z,26.30
2022-09-02T11:25:53.605Z,26.10
2022-09-02T11:28:34.809Z,26.00
2022-09-02T11:31:09.447Z,25.70
2022-09-02T11:33:57.743Z,25.70
2022-09-02T11:36:33.398Z,25.80
2022-09-02T11:39:51.506Z,25.80
2022-09-02T11:42:27.027Z,25.70
2022-09-02T11:45:12.836Z,25.80
2022-09-02T11:47:55.735Z,25.70
2022-09-02T11:50:35.841Z,25.70
2022-09-02T11:53:24.790Z,25.60
2022-09-02T11:55:57.135Z,25.50
2022-09-02T11:58:49.627Z,25.50
2022-09-02T12:01:23.009Z,25.60
2022-09-02T12:07:11.092Z,25.70
2022-09-02T12:09:52.551Z,25.50
2022-09-02T12:12:38.357Z,25.70
2022-09-02T12:15:05.502Z,25.70
2022-09-02T12:17:55.506Z,25.70
2022-09-02T12:20:41.422Z,25.80
2022-09-02T12:23:09.878Z,25.80
2022-09-02T12:25:49.457Z,25.80
2022-09-02T12:28:26.166Z,25.70
2022-09-02T12:31:16.526Z,25.70
2022-09-02T12:33:51.561Z,25.50
2022-09-02T12:36:44.563Z,25.60
2022-09-02T12:39:23.292Z,25.80
2022-09-02T12:42:10.134Z,25.80
2022-09-02T12:45:29.405Z,25.80
2022-09-02T12:50:46.445Z,25.40
2022-09-02T12:53:32.346Z,25.40
2022-09-02T12:56:04.410Z,25.70
2022-09-02T12:58:45.644Z,25.70
2022-09-02T13:01:21.657Z,25.60
2022-09-02T13:04:03.392Z,25.50
2022-09-02T13:06:51.960Z,25.70
2022-09-02T13:09:37.316Z,25.90
2022-09-02T13:12:25.170Z,26.00
2022-09-02T13:15:06.149Z,25.90
2022-09-02T13:18:20.967Z,26.00
2022-09-02T13:21:14.169Z,26.10
2022-09-02T13:24:25.131Z,26.10
2022-09-02T13:27:14.055Z,26.20
2022-09-02T13:30:02.541Z,26.20
2022-09-02T13:32:30.745Z,26.40
2022-09-02T13:35:01.835Z,26.40
2022-09-02T13:37:31.363Z,26.40
2022-09-02T13:39:58.768Z,26.40
2022-09-02T13:42:32.837Z,26.40
2022-09-02T13:45:10.000Z,26.60
2022-09-02T13:47:37.226Z,26.80
2022-09-02T13:50:06.654Z,26.90
2022-09-02T13:53:34.590Z,26.80
2022-09-02T13:55:26.035Z,26.80
2022-09-02T13:58:03.460Z,26.90
2022-09-02T14:00:34.649Z,26.70
2022-09-02T14:03:23.065Z,26.60
2022-09-02T14:05:52.781Z,26.40
2022-09-02T14:08:23.999Z,26.80
2022-09-02T14:10:53.800Z,27.20
2022-09-02T14:13:22.341Z,27.10
2022-09-02T14:18:21.765Z,27.40
2022-09-02T14:21:01.340Z,27.40
2022-09-02T14:23:33.328Z,27.60
2022-09-02T14:26:03.843Z,27.60
2022-09-02T14:28:33.269Z,27.30
2022-09-02T14:31:08.789Z,27.60
2022-09-02T14:36:15.048Z,28.40
2022-09-02T14:38:48.365Z,28.20
2022-09-02T14:41:25.279Z,28.50
2022-09-02T14:43:58.798Z,28.90
2022-09-02T14:46:37.111Z,29.10
2022-09-02T14:49:20.967Z,29.80
2022-09-02T14:51:54.596Z,30.30
2022-09-02T15:02:47.573Z,31.60
2022-09-02T15:05:14.837Z,31.80
2022-09-02T15:07:41.857Z,31.90
2022-09-02T15:10:09.752Z,32.10
2022-09-02T15:12:54.752Z,32.00
2022-09-02T15:15:21.859Z,31.60
2022-09-02T15:17:50.841Z,32.30
2022-09-02T15:20:24.686Z,32.60
2022-09-02T15:22:54.248Z,33.70
2022-09-02T15:25:20.976Z,34.10
2022-09-02T15:27:47.766Z,33.50
2022-09-02T15:30:15.262Z,31.00
2022-09-02T15:32:42.051Z,29.10
2022-09-02T15:35:09.543Z,27.90
2022-09-02T15:37:41.019Z,27.20
2022-09-02T15:40:08.975Z,26.80
2022-09-02T15:42:39.602Z,26.30
2022-09-02T15:45:09.011Z,26.10
2022-09-02T15:47:36.898Z,25.70
2022-09-02T15:50:05.228Z,25.60
2022-09-02T15:52:34.333Z,25.40
2022-09-02T15:55:01.358Z,25.30
2022-09-02T15:57:28.708Z,25.30
2022-09-02T15:59:55.537Z,25.20
2022-09-02T16:02:22.540Z,25.30
2022-09-02T16:04:51.959Z,25.30
2022-09-02T16:07:18.770Z,25.30
2022-09-02T16:09:45.885Z,25.20
2022-09-02T16:12:13.229Z,25.20
2022-09-02T16:14:40.018Z,25.20
2022-09-02T16:17:08.502Z,25.20
2022-09-02T16:19:37.734Z,25.20
2022-09-02T16:22:04.641Z,25.20
2022-09-02T16:24:33.578Z,25.10
2022-09-02T16:27:03.155Z,25.20
2022-09-02T16:29:37.129Z,25.10
2022-09-02T16:34:55.608Z,25.00
2022-09-02T16:37:24.582Z,25.00
2022-09-02T16:39:51.507Z,25.00
2022-09-02T16:42:18.294Z,25.00
2022-09-02T16:44:51.525Z,24.90
2022-09-02T16:47:18.670Z,24.70
2022-09-02T16:49:46.361Z,24.70
2022-09-02T16:52:15.600Z,24.70
2022-09-02T16:54:43.488Z,24.60
2022-09-02T16:57:10.281Z,24.60
2022-09-02T16:59:37.045Z,24.40
2022-09-02T17:02:06.449Z,24.40
2022-09-02T17:04:33.290Z,24.50
2022-09-02T17:07:00.165Z,24.70
2022-09-02T17:09:26.852Z,24.60
2022-09-02T17:11:58.530Z,24.40
2022-09-02T17:14:27.475Z,24.40
2022-09-02T17:16:54.245Z,24.40
2022-09-02T17:19:26.191Z,24.20
2022-09-02T17:21:56.707Z,24.10
2022-09-02T17:24:31.538Z,24.00
2022-09-02T17:27:00.269Z,24.00
2022-09-02T17:29:48.475Z,24.00
2022-09-02T17:32:18.965Z,24.00
2022-09-02T17:34:49.358Z,24.00
2022-09-02T17:37:18.787Z,24.00
2022-09-02T17:39:46.633Z,23.90
2022-09-02T17:42:15.921Z,23.90
2022-09-02T17:44:42.880Z,23.80
2022-09-02T17:47:21.551Z,23.70
2022-09-02T17:49:51.424Z,23.80
2022-09-02T17:52:24.325Z,23.80
2022-09-02T17:54:54.417Z,23.70
2022-09-02T17:57:48.216Z,23.70
2022-09-02T18:00:17.656Z,23.60
2022-09-02T18:03:02.644Z,23.60
2022-09-02T18:05:41.410Z,23.60
2022-09-02T18:08:21.322Z,23.50
2022-09-02T18:10:59.473Z,23.40
2022-09-02T18:13:54.396Z,23.30
2022-09-02T18:16:32.082Z,23.20
2022-09-02T18:19:38.304Z,23.10
2022-09-02T18:22:19.828Z,23.00
2022-09-02T18:24:55.409Z,23.00
2022-09-02T18:27:37.706Z,23.00
2022-09-02T18:30:10.593Z,23.00
2022-09-02T18:33:14.318Z,22.90
2022-09-02T18:36:35.788Z,22.80
2022-09-02T18:39:08.475Z,22.70
2022-09-02T18:41:41.043Z,22.60
2022-09-02T18:44:58.340Z,22.60
2022-09-02T18:47:32.674Z,22.50
2022-09-02T18:50:03.032Z,22.50
2022-09-02T18:52:29.832Z,22.40
2022-09-02T18:55:02.036Z,22.30
2022-09-02T18:57:39.133Z,22.30
2022-09-02T19:00:11.565Z,22.20
2022-09-02T19:03:01.102Z,22.20
2022-09-02T19:05:30.820Z,22.20
2022-09-02T19:08:27.724Z,22.20
2022-09-02T19:11:04.061Z,22.20
2022-09-02T19:13:43.207Z,22.10
2022-09-02T19:16:10.287Z,22.00
2022-09-02T19:18:39.569Z,22.00
2022-09-02T19:21:06.477Z,21.90
2022-09-02T19:23:34.836Z,21.90
2022-09-02T19:26:02.098Z,21.80
2022-09-02T19:28:29.533Z,21.90
2022-09-02T19:31:03.156Z,21.80
2022-09-02T19:33:31.949Z,21.70
2022-09-02T19:35:59.328Z,21.60
2022-09-02T19:38:27.499Z,21.60
2022-09-02T19:40:56.891Z,21.50
2022-09-02T19:45:53.105Z,21.50
2022-09-02T19:48:22.524Z,21.50
2022-09-02T19:50:49.420Z,21.40
2022-09-02T19:53:27.823Z,21.30
2022-09-02T19:55:59.742Z,21.30
2022-09-02T19:58:26.778Z,21.30
2022-09-02T20:00:57.023Z,21.20
2022-09-02T20:03:26.464Z,21.20
2022-09-02T20:05:53.315Z,21.20
2022-09-02T20:08:24.317Z,21.10
2022-09-02T20:13:25.869Z,21.00
2022-09-02T20:15:53.893Z,20.90
2022-09-02T20:18:22.575Z,20.80
2022-09-02T20:20:54.835Z,20.80
2022-09-02T20:26:34.227Z,20.70
2022-09-02T20:29:22.874Z,20.60
2022-09-02T20:32:01.425Z,20.60
2022-09-02T20:34:33.411Z,20.50
2022-09-02T20:37:19.233Z,20.40
2022-09-02T20:40:05.569Z,20.30
2022-09-02T20:43:06.422Z,20.30
2022-09-02T20:46:00.851Z,20.20
2022-09-02T20:48:51.651Z,20.10
2022-09-02T20:51:27.394Z,20.00
2022-09-02T20:54:03.779Z,20.00
2022-09-02T20:56:39.475Z,20.00
2022-09-02T20:59:31.184Z,19.90
2022-09-02T21:02:01.836Z,19.80
2022-09-02T21:04:50.605Z,19.80
2022-09-02T21:07:26.405Z,19.80
2022-09-02T21:10:06.355Z,19.80
2022-09-02T21:12:41.188Z,19.80
2022-09-02T21:15:25.845Z,19.70
2022-09-02T21:18:18.334Z,19.70
2022-09-02T21:20:51.285Z,19.70
2022-09-02T21:23:32.364Z,19.70
2022-09-02T21:26:07.701Z,19.60
2022-09-02T21:28:42.207Z,19.60
2022-09-02T21:31:28.571Z,19.50
2022-09-02T21:33:59.048Z,19.40
2022-09-02T21:36:29.720Z,19.50
2022-09-02T21:39:05.592Z,19.60
2022-09-02T21:41:34.334Z,19.60
2022-09-02T21:44:22.647Z,19.50
2022-09-02T21:47:04.045Z,19.50
2022-09-02T21:49:48.131Z,19.50
2022-09-02T21:52:15.012Z,19.50
2022-09-02T21:55:06.693Z,19.40
2022-09-02T21:57:51.547Z,19.40
2022-09-02T22:00:23.135Z,19.40
2022-09-02T22:03:30.199Z,19.40
2022-09-02T22:06:05.780Z,19.20
2022-09-02T22:08:39.398Z,19.20
2022-09-02T22:11:24.126Z,19.20
2022-09-02T22:13:55.602Z,19.20
2022-09-02T22:16:45.740Z,19.20
2022-09-02T22:19:13.538Z,19.10
2022-09-02T22:21:53.998Z,19.10
2022-09-02T22:24:28.482Z,19.00
2022-09-02T22:27:25.509Z,19.00
2022-09-02T22:30:13.438Z,19.00
2022-09-02T22:51:48.310Z,18.60
2022-09-02T22:54:15.087Z,18.60
2022-09-02T22:56:47.907Z,18.40
2022-09-02T22:59:51.945Z,18.50
2022-09-02T23:02:36.847Z,18.40
2022-09-02T23:05:46.870Z,18.40
2022-09-02T23:08:16.258Z,18.30
2022-09-02T23:10:53.410Z,18.20
2022-09-02T23:16:41.523Z,18.20
2022-09-02T23:19:49.922Z,18.10
2022-09-02T23:22:42.048Z,18.10
2022-09-02T23:28:03.831Z,17.90
2022-09-02T23:33:19.207Z,17.90
2022-09-02T23:43:43.867Z,17.70
2022-09-02T23:46:33.950Z,17.70
2022-09-02T23:49:39.260Z,17.70
2022-09-02T23:52:16.634Z,17.50
2022-09-02T23:55:28.310Z,17.50
